| time (UTC) | temp F | wind direction | speed MPH | gust MPH | rain 1hr in | rain 24hr in | rain mn in | humidity % | barometer mb |
| 20260510224537 | 56 | 74 | 6.0 | 16.0 | 0.00 | 0.15 | 0.15 | 40 | 1014.5 |
| 20260510223034 | 57 | 93 | 7.0 | 18.0 | 0.00 | 0.16 | 0.15 | 42 | 1014.3 |
| 20260510221532 | 58 | 74 | 5.0 | 17.0 | 0.00 | 0.16 | 0.15 | 40 | 1014.0 |
| 20260510220032 | 59 | 61 | 7.0 | 16.0 | 0.00 | 0.16 | 0.15 | 43 | 1013.8 |
| 20260510214527 | 58 | 87 | 4.0 | 13.0 | 0.00 | 0.16 | 0.15 | 54 | 1013.4 |
| 20260510213059 | 56 | 55 | 3.0 | 12.0 | 0.00 | 0.16 | 0.15 | 55 | 1013.1 |
| 20260510211553 | 55 | 92 | 4.0 | 11.0 | 0.00 | 0.16 | 0.15 | 66 | 1013.2 |
| 20260510210048 | 55 | 38 | 3.0 | 11.0 | 0.00 | 0.16 | 0.15 | 69 | 1013.2 |
| 20260510204556 | 55 | 93 | 5.0 | 9.0 | 0.00 | 0.16 | 0.15 | 70 | 1013.1 |
| 20260510203047 | 55 | 53 | 3.0 | 9.0 | 0.00 | 0.17 | 0.15 | 69 | 1013.0 |
| 20260510201549 | 55 | 36 | 4.0 | 7.0 | 0.00 | 0.17 | 0.15 | 70 | 1013.1 |
| 20260510200044 | 54 | 79 | 6.0 | 13.0 | 0.00 | 0.17 | 0.15 | 68 | 1013.2 |
| 20260510194544 | 55 | 51 | 6.0 | 11.0 | 0.00 | 0.17 | 0.15 | 68 | 1013.4 |
| 20260510193044 | 56 | 35 | 5.0 | 15.0 | 0.00 | 0.17 | 0.15 | 66 | 1013.4 |
| 20260510191540 | 56 | 96 | 5.0 | 12.0 | 0.00 | 0.17 | 0.15 | 69 | 1013.5 |
| 20260510190036 | 55 | 82 | 5.0 | 14.0 | 0.00 | 0.17 | 0.15 | 71 | 1013.6 |
| 20260510184531 | 55 | 44 | 4.0 | 18.0 | 0.00 | 0.17 | 0.15 | 74 | 1013.7 |
| 20260510183028 | 54 | 40 | 5.0 | 12.0 | 0.00 | 0.17 | 0.15 | 76 | 1013.9 |
| 20260510181525 | 53 | 52 | 7.0 | 12.0 | 0.00 | 0.17 | 0.15 | 81 | 1013.9 |
| 20260510180024 | 52 | 5 | 6.0 | 12.0 | 0.00 | 0.17 | 0.15 | 84 | 1013.9 |
| 20260510174516 | 51 | 58 | 7.0 | 14.0 | 0.00 | 0.17 | 0.15 | 86 | 1013.8 |
| 20260510173015 | 50 | 79 | 7.0 | 13.0 | 0.00 | 0.20 | 0.15 | 92 | 1013.8 |
| 20260510173013 | 50 | 76 | 7.0 | 13.0 | 0.00 | 0.20 | 0.15 | 92 | 1013.8 |
| 20260510171511 | 48 | 69 | 3.0 | 12.0 | 0.00 | 0.20 | 0.15 | 93 | 1013.9 |
| 20260510170010 | 49 | 103 | 7.0 | 13.0 | 0.00 | 0.20 | 0.15 | 94 | 1013.7 |
| 20260510164514 | 49 | 15 | 3.0 | 10.0 | 0.00 | 0.20 | 0.15 | 95 | 1013.6 |
| 20260510163003 | 49 | 53 | 1.0 | 5.0 | 0.00 | 0.20 | 0.15 | 96 | 1013.4 |
| 20260510161501 | 49 | 54 | 3.0 | 6.0 | 0.00 | 0.20 | 0.15 | 95 | 1013.6 |
| 20260510160059 | 49 | 73 | 4.0 | 9.0 | 0.01 | 0.20 | 0.15 | 95 | 1013.5 |
| 20260510154601 | 48 | 47 | 1.0 | 4.0 | 0.03 | 0.20 | 0.15 | 95 | 1013.2 |
| 20260510153058 | 48 | 52 | 0.0 | 4.0 | 0.12 | 0.20 | 0.15 | 95 | 1013.2 |
| 20260510151557 | 48 | 35 | 0.0 | 3.0 | 0.15 | 0.20 | 0.15 | 95 | 1013.3 |
| 20260510150123 | 48 | 45 | 3.0 | 7.0 | 0.14 | 0.19 | 0.14 | 94 | 1013.4 |
| 20260510144552 | 48 | 47 | 4.0 | 10.0 | 0.12 | 0.17 | 0.12 | 94 | 1013.3 |
| 20260510143048 | 49 | 63 | 4.0 | 11.0 | 0.03 | 0.08 | 0.03 | 91 | 1013.3 |
| 20260510141547 | 50 | 5 | 2.0 | 9.0 | 0.00 | 0.05 | 0.00 | 89 | 1012.4 |
| 20260510140046 | 50 | 51 | 4.0 | 9.0 | 0.00 | 0.05 | 0.00 | 89 | 1012.6 |
| 20260510134545 | 50 | 40 | 4.0 | 9.0 | 0.00 | 0.05 | 0.00 | 89 | 1012.6 |
| 20260510133046 | 50 | 13 | 2.0 | 8.0 | 0.00 | 0.05 | 0.00 | 90 | 1012.7 |
| 20260510131543 | 50 | 40 | 4.0 | 9.0 | 0.00 | 0.05 | 0.00 | 89 | 1012.6 |
| 20260510130042 | 50 | 49 | 4.0 | 7.0 | 0.00 | 0.05 | 0.00 | 89 | 1012.5 |
| 20260510124539 | 50 | 34 | 2.0 | 7.0 | 0.00 | 0.05 | 0.00 | 89 | 1012.4 |
| 20260510123039 | 50 | 336 | 2.0 | 6.0 | 0.00 | 0.05 | 0.00 | 89 | 1012.5 |
| 20260510121637 | 50 | 43 | 5.0 | 10.0 | 0.00 | 0.05 | 0.00 | 90 | 1012.5 |
| 20260510120033 | 49 | 33 | 1.0 | 4.0 | 0.00 | 0.05 | 0.00 | 91 | 1012.5 |
| 20260510114529 | 49 | 41 | 1.0 | 8.0 | 0.00 | 0.05 | 0.00 | 91 | 1012.4 |
| 20260510113025 | 49 | 34 | 2.0 | 5.0 | 0.00 | 0.05 | 0.00 | 91 | 1012.2 |
| 20260510111521 | 48 | 303 | 1.0 | 5.0 | 0.00 | 0.05 | 0.00 | 92 | 1011.8 |
| 20260510110018 | 48 | 296 | 2.0 | 5.0 | 0.00 | 0.05 | 0.00 | 92 | 1012.1 |
| 20260510104512 | 47 | 275 | 0.0 | 3.0 | 0.00 | 0.05 | 0.00 | 93 | 1011.8 |
| 20260510103009 | 47 | 310 | 1.0 | 4.0 | 0.00 | 0.05 | 0.00 | 94 | 1011.3 |
| 20260510101507 | 46 | 244 | 3.0 | 4.0 | 0.00 | 0.05 | 0.00 | 94 | 1011.4 |
| 20260510100005 | 46 | 249 | 2.0 | 5.0 | 0.00 | 0.05 | 0.00 | 94 | 1011.1 |
| 20260510094613 | 46 | 286 | 1.0 | 3.0 | 0.00 | 0.05 | 0.00 | 95 | 1010.8 |
| 20260510093120 | 46 | 291 | 0.0 | 6.0 | 0.00 | 0.05 | 0.00 | 95 | 1010.7 |
| 20260510091557 | 46 | 237 | 3.0 | 4.0 | 0.00 | 0.05 | 0.00 | 95 | 1010.5 |
| 20260510090055 | 46 | 296 | 2.0 | 5.0 | 0.00 | 0.05 | 0.00 | 95 | 1010.0 |
| 20260510084550 | 46 | 344 | 0.0 | 4.0 | 0.00 | 0.05 | 0.00 | 94 | 1010.4 |
| 20260510083058 | 46 | 313 | 1.0 | 5.0 | 0.00 | 0.05 | 0.05 | 95 | 1010.0 |
| 20260510081545 | 46 | 328 | 2.0 | 4.0 | 0.00 | 0.05 | 0.05 | 95 | 1010.8 |
| 20260510080046 | 46 | 26 | 1.0 | 5.0 | 0.00 | 0.05 | 0.05 | 94 | 1011.2 |
| 20260510074547 | 46 | 327 | 1.0 | 4.0 | 0.00 | 0.05 | 0.05 | 94 | 1011.2 |
| 20260510073051 | 47 | 5 | 2.0 | 5.0 | 0.00 | 0.05 | 0.05 | 93 | 1011.1 |
| 20260510071541 | 47 | 16 | 1.0 | 5.0 | 0.00 | 0.05 | 0.05 | 92 | 1010.9 |
| 20260510070040 | 47 | 287 | 2.0 | 8.0 | 0.00 | 0.05 | 0.05 | 92 | 1010.8 |
| 20260510064540 | 47 | 355 | 0.0 | 3.0 | 0.00 | 0.05 | 0.05 | 91 | 1011.1 |
| 20260510063039 | 47 | 292 | 2.0 | 11.0 | 0.00 | 0.05 | 0.05 | 91 | 1010.9 |
| 20260510061536 | 47 | 254 | 2.0 | 9.0 | 0.00 | 0.05 | 0.05 | 93 | 1010.9 |
| 20260510060041 | 46 | 317 | 1.0 | 8.0 | 0.00 | 0.05 | 0.05 | 95 | 1011.0 |
| 20260510054508 | 45 | 333 | 2.0 | 7.0 | 0.00 | 0.05 | 0.05 | 96 | 1011.1 |
| 20260510053003 | 45 | 295 | 0.0 | 6.0 | 0.00 | 0.05 | 0.05 | 96 | 1011.3 |
| 20260510051606 | 45 | 350 | 0.0 | 8.0 | 0.00 | 0.05 | 0.05 | 97 | 1011.4 |
| 20260510050132 | 45 | 308 | 2.0 | 9.0 | 0.00 | 0.05 | 0.05 | 97 | 1011.2 |
| 20260510044534 | 45 | 309 | 2.0 | 7.0 | 0.00 | 0.05 | 0.05 | 97 | 1011.2 |
| 20260510044531 | 45 | 293 | 2.0 | 7.0 | 0.00 | 0.05 | 0.05 | 97 | 1011.2 |
| 20260510043033 | 45 | 338 | 0.0 | 11.0 | 0.00 | 0.05 | 0.05 | 97 | 1011.6 |
| 20260510041530 | 44 | 327 | 4.0 | 11.0 | 0.00 | 0.05 | 0.05 | 97 | 1011.1 |
| 20260510041528 | 44 | 323 | 4.0 | 11.0 | 0.00 | 0.05 | 0.05 | 97 | 1011.1 |
| 20260510040027 | 44 | 355 | 2.0 | 5.0 | 0.00 | 0.05 | 0.05 | 97 | 1011.2 |
| 20260510034526 | 44 | 39 | 3.0 | 9.0 | 0.00 | 0.05 | 0.05 | 97 | 1011.5 |
| 20260510033108 | 44 | 50 | 4.0 | 9.0 | 0.00 | 0.05 | 0.05 | 97 | 1011.5 |
| 20260510031555 | 44 | 9 | 1.0 | 10.0 | 0.00 | 0.05 | 0.05 | 97 | 1011.5 |
| 20260510030025 | 44 | 327 | 3.0 | 8.0 | 0.00 | 0.05 | 0.05 | 96 | 1011.6 |
| 20260510024523 | 44 | 312 | 3.0 | 8.0 | 0.00 | 0.05 | 0.05 | 96 | 1011.7 |
| 20260510023021 | 44 | 314 | 1.0 | 8.0 | 0.00 | 0.05 | 0.05 | 96 | 1011.7 |
| 20260510021521 | 44 | 36 | 2.0 | 11.0 | 0.00 | 0.05 | 0.05 | 96 | 1011.6 |
| 20260510020020 | 44 | 340 | 7.0 | 12.0 | 0.00 | 0.05 | 0.05 | 96 | 1011.8 |
| 20260510014523 | 44 | 251 | 4.0 | 14.0 | 0.00 | 0.05 | 0.05 | 95 | 1012.0 |
| 20260510013049 | 44 | 360 | 4.0 | 10.0 | 0.00 | 0.05 | 0.05 | 95 | 1012.1 |
| 20260510011549 | 44 | 340 | 4.0 | 10.0 | 0.00 | 0.05 | 0.05 | 95 | 1012.1 |
| 20260510010045 | 44 | 300 | 3.0 | 6.0 | 0.00 | 0.05 | 0.05 | 95 | 1012.1 |
| 20260510004549 | 44 | 275 | 1.0 | 5.0 | 0.00 | 0.05 | 0.05 | 95 | 1012.0 |
| 20260510003044 | 44 | 255 | 3.0 | 8.0 | 0.00 | 0.05 | 0.05 | 94 | 1011.7 |
| 20260510001544 | 44 | 312 | 3.0 | 9.0 | 0.00 | 0.05 | 0.05 | 94 | 1011.7 |
| 20260510000014 | 44 | 306 | 2.0 | 7.0 | 0.00 | 0.05 | 0.05 | 94 | 1011.5 |
| 20260509234523 | 44 | 322 | 4.0 | 7.0 | 0.00 | 0.05 | 0.05 | 94 | 1011.2 |
| 20260509233007 | 44 | 306 | 4.0 | 6.0 | 0.00 | 0.05 | 0.05 | 94 | 1011.5 |
| 20260509231512 | 44 | 306 | 3.0 | 9.0 | 0.00 | 0.05 | 0.05 | 94 | 1011.4 |
| 20260509230006 | 44 | 308 | 2.0 | 6.0 | 0.00 | 0.05 | 0.05 | 94 | 1011.3 |